Killeen-Fort Hood Regional, TX

9:23 PM CDT on August 30, 2015 (GMT -0500)
Fort Hood | | Change Station
CLOSE
Current Station
Airport
Location: Fort Hood,
Elevation: 1014 ft
Nearby Weather Stations

Elev 1014 ft 31.07 °N, 97.83 °W | Updated 25 minutes ago

Mostly Cloudy
Mostly Cloudy
75 °F
Feels Like 75 °F
N
7
Wind Variable Wind from South

Today
High -- | Low -- °F
--% Chance of Precip.
Yesterday
High -- | Low -- °F
Precip. -- in
7:06 AM 7:57 PM
Full, 97% visible
Pressure 29.95 in
Visibility 10.0 miles
Clouds Scattered Clouds 13000 ft
Mostly Cloudy 18000 ft
Dew Point 66 °F
Humidity 72%
Rainfall 0.00 in
Snow Depth Not available.
UV 0 out of 12
Pollen 8.00 out of 12
Air Quality Not available.
Flu Activity Not available.
METAR KGRK 310158Z AUTO 17006KT 10SM SCT130 BKN180 24/19 A2998 RMK AO2 CIG 130 RWY33 SLP142 T02410187
Pressure 29.95 in
Visibility 10.0 miles
Clouds Scattered Clouds 13000 ft
Mostly Cloudy 18000 ft
Dew Point 66 °F
Humidity 72%
Rainfall 0.00 in
Snow Depth Not available.
UV 0 out of 12
Pollen 8.00 out of 12
Air Quality Not available.
Flu Activity Not available.
METAR KGRK 310158Z AUTO 17006KT 10SM SCT130 BKN180 24/19 A2998 RMK AO2 CIG 130 RWY33 SLP142 T02410187

10-Day Weather Forecast

×

Almanac

Astronomy

Aug. 30, 2015 Rise Set
Actual Time
Civil Twilight
Nautical Twilight
Astronomical Twilight
Moon
Length of Visible Light
Length of Day
Tomorrow will be .
, % of the Moon is Illuminated

Today's Extremes

State Highs State Lows

Community

WunderPhotos

Upload Photos

1,851,157 photos uploaded!

WunderBlogs® & News

Nearby

Air Quality

  Air Quality AQ Index Pollutant
Not available.

Snow Depth

Station Depth Elevation

Earthquake Activity

City Distance Mag. Time & Date
Minimum magnitude displayed is 2.5.

Coastal Water Temperatures

Place Temperature

Stations

Nearby Weather Stations

Station Location Temp. Windchill Dew Point Humidity Wind Precip. Elev Updated Type